createdAt,value
2022-10-07T00:01:27.626Z,5.57
2022-10-07T00:03:29.990Z,5.55
2022-10-07T00:05:31.794Z,5.51
2022-10-07T00:07:33.639Z,5.55
2022-10-07T00:09:35.414Z,5.58
2022-10-07T00:11:37.418Z,5.57
2022-10-07T00:13:41.432Z,5.47
2022-10-07T00:15:43.251Z,5.36
2022-10-07T00:17:45.504Z,5.31
2022-10-07T00:19:47.762Z,5.38
2022-10-07T00:21:49.585Z,5.35
2022-10-07T00:23:51.838Z,5.38
2022-10-07T00:25:53.818Z,5.40
2022-10-07T00:27:55.607Z,5.44
2022-10-07T00:29:57.475Z,5.40
2022-10-07T00:31:59.489Z,5.26
2022-10-07T00:34:01.717Z,5.28
2022-10-07T00:36:27.645Z,5.27
2022-10-07T00:38:29.783Z,5.28
2022-10-07T00:40:31.528Z,5.31
2022-10-07T00:42:33.325Z,5.27
2022-10-07T00:44:35.088Z,5.19
2022-10-07T00:46:39.596Z,5.15
2022-10-07T00:48:42.810Z,5.05
2022-10-07T00:50:44.688Z,5.15
2022-10-07T00:52:51.664Z,5.10
2022-10-07T00:54:57.950Z,5.12
2022-10-07T00:56:59.958Z,5.07
2022-10-07T00:59:02.172Z,5.08
2022-10-07T01:01:04.113Z,5.05
2022-10-07T01:03:06.455Z,5.08
2022-10-07T01:05:09.881Z,4.97
2022-10-07T01:07:11.769Z,4.98
2022-10-07T01:09:14.517Z,5.01
2022-10-07T01:11:52.244Z,4.92
2022-10-07T01:13:56.804Z,4.80
2022-10-07T01:16:25.380Z,4.85
2022-10-07T01:18:38.863Z,4.78
2022-10-07T01:20:45.605Z,4.71
2022-10-07T01:23:14.728Z,4.76
2022-10-07T01:26:03.319Z,4.58
2022-10-07T01:28:09.677Z,4.52
2022-10-07T01:30:12.030Z,4.47
2022-10-07T01:32:21.999Z,4.51
2022-10-07T01:34:26.284Z,4.57
2022-10-07T01:36:28.529Z,4.59
2022-10-07T01:38:32.537Z,4.50
2022-10-07T01:40:51.293Z,4.53
2022-10-07T01:42:54.822Z,4.49
2022-10-07T01:44:58.812Z,4.48
2022-10-07T01:47:00.606Z,4.55
2022-10-07T01:49:02.612Z,4.60
2022-10-07T01:51:05.043Z,4.57
2022-10-07T01:53:15.625Z,4.35
2022-10-07T01:55:54.549Z,4.40
2022-10-07T01:58:08.074Z,4.36
2022-10-07T02:00:13.338Z,4.30
2022-10-07T02:02:36.294Z,4.46
2022-10-07T02:04:43.970Z,4.45
2022-10-07T02:07:11.636Z,4.33
2022-10-07T02:09:29.246Z,4.39
2022-10-07T02:11:36.136Z,4.26
2022-10-07T02:13:56.680Z,4.18
2022-10-07T02:16:27.773Z,4.24
2022-10-07T02:18:32.531Z,4.22
2022-10-07T02:20:38.162Z,4.21
2022-10-07T02:22:43.600Z,4.26
2022-10-07T02:24:48.006Z,4.34
2022-10-07T02:26:51.978Z,4.32
2022-10-07T02:28:57.142Z,4.03
2022-10-07T02:31:02.918Z,4.05
2022-10-07T02:33:07.392Z,4.04
2022-10-07T02:35:24.129Z,4.10
2022-10-07T02:37:33.693Z,4.02
2022-10-07T02:39:35.406Z,4.07
2022-10-07T02:41:58.752Z,4.05
2022-10-07T02:44:06.059Z,3.98
2022-10-07T02:46:15.444Z,4.06
2022-10-07T02:48:30.711Z,4.07
2022-10-07T02:50:38.932Z,4.19
2022-10-07T02:52:42.901Z,4.11
2022-10-07T02:54:51.887Z,4.10
2022-10-07T02:56:54.673Z,4.11
2022-10-07T02:58:58.680Z,4.10
2022-10-07T03:01:03.028Z,4.21
2022-10-07T03:03:05.741Z,4.21
2022-10-07T03:05:09.321Z,4.16
2022-10-07T03:07:11.187Z,4.19
2022-10-07T03:09:13.001Z,4.20
2022-10-07T03:11:14.827Z,4.22
2022-10-07T03:13:16.617Z,4.19
2022-10-07T03:15:18.378Z,4.36
2022-10-07T03:17:20.452Z,4.46
2022-10-07T03:19:22.314Z,4.54
2022-10-07T03:21:24.029Z,4.58
2022-10-07T03:23:27.228Z,4.59
2022-10-07T03:25:29.156Z,4.67
2022-10-07T03:27:30.879Z,4.69
2022-10-07T03:29:33.815Z,4.76
2022-10-07T03:31:35.842Z,4.79
2022-10-07T03:33:38.353Z,4.83
2022-10-07T03:35:40.208Z,4.89
2022-10-07T03:37:42.735Z,4.87
2022-10-07T03:39:44.610Z,4.78
2022-10-07T03:41:46.456Z,4.68
2022-10-07T03:43:48.396Z,4.78
2022-10-07T03:45:50.843Z,4.77
2022-10-07T03:47:52.678Z,4.79
2022-10-07T03:49:55.209Z,4.76
2022-10-07T03:51:57.069Z,4.69
2022-10-07T03:53:59.537Z,4.53
2022-10-07T03:56:01.302Z,4.63
2022-10-07T03:58:02.995Z,4.66
2022-10-07T04:00:05.111Z,4.59
2022-10-07T04:02:06.909Z,4.56
2022-10-07T04:04:08.632Z,4.45
2022-10-07T04:06:10.592Z,4.51
2022-10-07T04:08:12.933Z,4.38
2022-10-07T04:10:16.463Z,4.44
2022-10-07T04:12:18.496Z,4.49
2022-10-07T04:14:20.309Z,4.55
2022-10-07T04:16:22.088Z,4.49
2022-10-07T04:18:24.145Z,4.52
2022-10-07T04:20:26.316Z,4.48
2022-10-07T04:22:28.106Z,4.48
2022-10-07T04:24:29.850Z,4.51
2022-10-07T04:26:31.729Z,4.54
2022-10-07T04:28:33.545Z,4.53
2022-10-07T04:30:39.817Z,4.46
2022-10-07T04:32:41.621Z,4.35
2022-10-07T04:34:43.336Z,4.34
2022-10-07T04:36:45.212Z,4.39
2022-10-07T04:38:50.596Z,4.44
2022-10-07T04:40:52.281Z,4.42
2022-10-07T04:42:54.088Z,4.38
2022-10-07T04:44:55.968Z,4.33
2022-10-07T04:46:57.738Z,4.37
2022-10-07T04:48:59.625Z,4.34
2022-10-07T04:51:06.789Z,4.33
2022-10-07T04:53:10.058Z,4.31
2022-10-07T04:55:12.066Z,4.25
2022-10-07T04:57:13.863Z,4.26
2022-10-07T04:59:15.546Z,4.31
2022-10-07T05:01:17.525Z,4.28
2022-10-07T05:03:21.722Z,4.32
2022-10-07T05:05:23.409Z,4.42
2022-10-07T05:07:25.794Z,4.29
2022-10-07T05:09:27.885Z,4.36
2022-10-07T05:11:29.610Z,4.35
2022-10-07T05:13:31.367Z,4.32
2022-10-07T05:15:33.655Z,4.33
2022-10-07T05:17:35.415Z,4.53
2022-10-07T05:19:37.314Z,5.06
2022-10-07T05:21:39.251Z,5.06
2022-10-07T05:23:40.968Z,4.96
2022-10-07T05:25:43.085Z,5.23
2022-10-07T05:27:45.054Z,5.54
2022-10-07T05:29:46.919Z,5.44
2022-10-07T05:31:48.848Z,5.88
2022-10-07T05:33:50.703Z,6.27
2022-10-07T05:35:52.428Z,6.68
2022-10-07T05:37:54.618Z,7.29
2022-10-07T05:39:56.636Z,7.78
2022-10-07T05:41:58.483Z,8.04
2022-10-07T05:44:00.246Z,8.77
2022-10-07T05:46:21.802Z,9.16
2022-10-07T05:48:23.624Z,9.52
2022-10-07T05:50:25.908Z,9.69
2022-10-07T05:52:28.014Z,9.95
2022-10-07T05:54:29.722Z,10.10
2022-10-07T05:56:31.534Z,10.53
2022-10-07T05:58:33.732Z,10.72
2022-10-07T06:00:35.409Z,10.89
2022-10-07T06:02:37.432Z,10.89
2022-10-07T06:04:39.520Z,10.87
2022-10-07T06:06:41.235Z,11.00
2022-10-07T06:08:43.433Z,11.38
2022-10-07T06:10:49.122Z,11.38
2022-10-07T06:12:50.852Z,11.40
2022-10-07T06:14:52.754Z,11.89
2022-10-07T06:16:54.618Z,12.07
2022-10-07T06:18:56.894Z,11.73
2022-10-07T06:21:00.847Z,12.46
2022-10-07T06:23:02.827Z,12.35
2022-10-07T06:25:04.929Z,12.22
2022-10-07T06:27:06.676Z,12.51
2022-10-07T06:29:09.152Z,12.34
2022-10-07T06:31:13.686Z,12.44
2022-10-07T06:33:17.271Z,12.36
2022-10-07T06:35:19.317Z,12.36
2022-10-07T06:37:21.025Z,12.20
2022-10-07T06:39:22.977Z,12.64
2022-10-07T06:41:24.738Z,12.92
2022-10-07T06:43:27.746Z,12.48
2022-10-07T06:45:33.726Z,12.44
2022-10-07T06:47:35.662Z,12.39
2022-10-07T06:49:37.344Z,12.52
2022-10-07T06:51:39.080Z,12.91
2022-10-07T06:53:41.214Z,12.64
2022-10-07T06:55:42.888Z,12.76
2022-10-07T06:57:46.232Z,12.59
2022-10-07T06:59:48.199Z,12.71
2022-10-07T07:01:49.865Z,12.66
2022-10-07T07:03:51.751Z,12.87
2022-10-07T07:05:54.787Z,13.24
2022-10-07T07:07:57.098Z,13.19
2022-10-07T07:09:58.803Z,13.02
2022-10-07T07:12:00.636Z,12.90
2022-10-07T07:14:05.615Z,13.17
2022-10-07T07:16:08.397Z,13.23
2022-10-07T07:18:11.261Z,13.35
2022-10-07T07:20:12.991Z,13.51
2022-10-07T07:22:14.887Z,13.66
2022-10-07T07:24:16.875Z,13.80
2022-10-07T07:26:18.929Z,13.97
2022-10-07T07:28:21.035Z,14.33
2022-10-07T07:30:22.898Z,14.16
2022-10-07T07:32:24.856Z,14.12
2022-10-07T07:34:26.770Z,14.22
2022-10-07T07:36:30.589Z,13.78
2022-10-07T07:38:32.277Z,13.83
2022-10-07T07:40:37.173Z,13.80
2022-10-07T07:42:39.074Z,13.67
2022-10-07T07:44:41.066Z,13.47
2022-10-07T07:46:45.583Z,13.53
2022-10-07T07:48:48.179Z,13.65
2022-10-07T07:50:49.872Z,13.95
2022-10-07T07:52:56.535Z,14.08
2022-10-07T07:54:59.175Z,14.21
2022-10-07T07:57:00.860Z,14.21
2022-10-07T07:59:03.552Z,14.17
2022-10-07T08:01:08.439Z,14.24
2022-10-07T08:03:10.137Z,14.41
2022-10-07T08:05:11.918Z,14.60
2022-10-07T08:07:13.860Z,14.43
2022-10-07T08:09:15.895Z,14.61
2022-10-07T08:11:20.047Z,14.93
2022-10-07T08:13:21.887Z,15.06
2022-10-07T08:15:23.592Z,15.27
2022-10-07T08:17:25.302Z,15.55
2022-10-07T08:19:27.210Z,15.82
2022-10-07T08:21:29.574Z,16.00
2022-10-07T08:23:31.368Z,16.05
2022-10-07T08:25:33.106Z,16.18
2022-10-07T08:27:34.820Z,16.13
2022-10-07T08:29:36.558Z,16.35
2022-10-07T08:31:38.314Z,16.26
2022-10-07T08:33:42.373Z,16.38
2022-10-07T08:35:48.809Z,16.20
2022-10-07T08:37:50.567Z,16.27
2022-10-07T08:39:52.269Z,16.28
2022-10-07T08:42:14.127Z,16.47
2022-10-07T08:44:18.043Z,16.31
2022-10-07T08:46:25.147Z,16.58
2022-10-07T08:48:34.207Z,16.53
2022-10-07T08:51:00.504Z,16.72
2022-10-07T08:53:06.286Z,16.80
2022-10-07T08:55:16.974Z,17.01
2022-10-07T08:57:32.266Z,16.97
2022-10-07T08:59:35.934Z,17.04
2022-10-07T09:01:37.462Z,17.11
2022-10-07T09:03:55.475Z,17.07
2022-10-07T09:05:58.486Z,17.11
2022-10-07T09:08:06.671Z,17.00
2022-10-07T09:10:26.806Z,16.84
2022-10-07T09:12:40.521Z,17.24
2022-10-07T09:14:46.978Z,17.24
2022-10-07T09:16:50.776Z,17.24
2022-10-07T09:18:59.227Z,17.45
2022-10-07T09:21:05.208Z,17.67
2022-10-07T09:23:13.367Z,17.65
2022-10-07T09:25:26.950Z,17.61
2022-10-07T09:27:28.803Z,17.71
2022-10-07T09:29:30.921Z,17.37
2022-10-07T09:31:32.747Z,17.54
2022-10-07T09:33:42.185Z,17.58
2022-10-07T09:35:57.221Z,17.79
2022-10-07T09:38:05.237Z,17.76
2022-10-07T09:40:32.573Z,17.83
2022-10-07T09:42:38.959Z,17.85
2022-10-07T09:44:40.754Z,17.84
2022-10-07T09:46:51.332Z,17.85
2022-10-07T09:49:01.363Z,17.92
2022-10-07T09:51:17.763Z,18.19
2022-10-07T09:53:27.861Z,18.35
2022-10-07T09:55:42.946Z,18.20
2022-10-07T09:57:59.986Z,18.11
2022-10-07T10:00:13.968Z,17.68
2022-10-07T10:02:15.702Z,17.81
2022-10-07T10:04:24.936Z,17.72
2022-10-07T10:06:26.763Z,17.68
2022-10-07T10:08:55.420Z,17.93
2022-10-07T10:10:59.903Z,17.85
2022-10-07T10:13:04.174Z,17.72
2022-10-07T10:15:22.843Z,17.72
2022-10-07T10:17:29.296Z,17.80
2022-10-07T10:19:36.368Z,17.88
2022-10-07T10:21:42.544Z,17.76
2022-10-07T10:23:48.073Z,17.53
2022-10-07T10:26:00.092Z,17.87
2022-10-07T10:28:11.506Z,17.90
2022-10-07T10:30:24.630Z,17.76
2022-10-07T10:32:48.163Z,18.06
2022-10-07T10:34:55.133Z,18.06
2022-10-07T10:37:26.113Z,18.09
2022-10-07T10:39:52.247Z,18.01
2022-10-07T10:41:58.215Z,18.16
2022-10-07T10:44:30.170Z,18.26
2022-10-07T10:47:10.780Z,18.04
2022-10-07T10:49:29.262Z,18.06
2022-10-07T10:51:50.249Z,18.28
2022-10-07T10:54:04.169Z,18.30
2022-10-07T10:56:14.591Z,18.19
2022-10-07T10:58:49.675Z,18.50
2022-10-07T11:00:51.439Z,18.52
2022-10-07T11:03:31.307Z,18.37
2022-10-07T11:05:39.523Z,18.31
2022-10-07T11:07:51.260Z,18.38
2022-10-07T11:10:24.446Z,18.33
2022-10-07T11:12:44.902Z,17.92
2022-10-07T11:14:56.997Z,18.08
2022-10-07T11:17:05.191Z,18.31
2022-10-07T11:19:25.358Z,18.61
2022-10-07T11:21:36.519Z,18.60
2022-10-07T11:24:03.468Z,18.68
2022-10-07T11:26:17.156Z,18.40
2022-10-07T11:28:26.807Z,18.25
2022-10-07T11:30:35.556Z,18.43
2022-10-07T11:32:58.640Z,18.57
2022-10-07T11:35:21.940Z,18.38
2022-10-07T11:37:33.819Z,18.03
2022-10-07T11:39:39.678Z,18.21
2022-10-07T11:42:04.572Z,18.17
2022-10-07T11:44:14.820Z,18.06
2022-10-07T11:46:25.306Z,17.96
2022-10-07T11:48:39.034Z,17.85
2022-10-07T11:50:47.878Z,17.94
2022-10-07T11:52:54.048Z,18.24
2022-10-07T11:55:08.790Z,18.37
2022-10-07T11:57:26.189Z,18.38
2022-10-07T11:59:45.134Z,18.51
2022-10-07T12:01:50.251Z,18.49
2022-10-07T12:04:15.012Z,18.15
2022-10-07T12:06:16.976Z,17.92
2022-10-07T12:08:33.374Z,18.04
2022-10-07T12:10:35.426Z,18.31
2022-10-07T12:12:43.549Z,18.45
2022-10-07T12:14:59.846Z,18.60
2022-10-07T12:17:19.201Z,18.58
2022-10-07T12:19:23.641Z,18.63
2022-10-07T12:21:25.868Z,18.63
2022-10-07T12:23:27.506Z,18.57
2022-10-07T12:25:31.204Z,18.47
2022-10-07T12:27:34.833Z,18.33
2022-10-07T12:29:51.500Z,18.32
2022-10-07T12:31:53.310Z,18.42
2022-10-07T12:33:58.941Z,18.36
2022-10-07T12:36:19.148Z,18.29
2022-10-07T12:38:23.790Z,18.21
2022-10-07T12:40:30.387Z,17.92
2022-10-07T12:42:32.309Z,18.02
2022-10-07T12:44:40.765Z,18.19
2022-10-07T12:46:58.507Z,18.16
2022-10-07T12:49:12.909Z,18.11
2022-10-07T12:51:30.495Z,17.90
2022-10-07T12:53:44.125Z,18.00
2022-10-07T12:55:53.322Z,18.17
2022-10-07T12:57:56.301Z,18.13
2022-10-07T13:00:19.435Z,17.94
2022-10-07T13:02:36.270Z,17.86
2022-10-07T13:04:47.243Z,17.78
2022-10-07T13:07:07.392Z,17.96
2022-10-07T13:09:43.432Z,17.84
2022-10-07T13:12:03.119Z,17.94
2022-10-07T13:14:19.891Z,17.94
2022-10-07T13:16:44.137Z,17.91
2022-10-07T13:18:49.434Z,17.75
2022-10-07T13:21:02.432Z,17.80
2022-10-07T13:23:12.194Z,17.79
2022-10-07T13:25:17.184Z,17.71
2022-10-07T13:27:32.736Z,17.77
2022-10-07T13:29:34.720Z,17.80
2022-10-07T13:31:36.486Z,17.92
2022-10-07T13:33:38.320Z,18.06
2022-10-07T13:35:40.124Z,18.06
2022-10-07T13:37:46.154Z,18.11
2022-10-07T13:39:48.082Z,17.85
2022-10-07T13:41:53.832Z,17.69
2022-10-07T13:44:03.508Z,17.66
2022-10-07T13:46:09.231Z,17.66
2022-10-07T13:48:21.201Z,17.61
2022-10-07T13:50:26.859Z,17.65
2022-10-07T13:52:38.036Z,17.62
2022-10-07T13:54:39.828Z,17.49
2022-10-07T13:56:42.990Z,17.52
2022-10-07T13:58:45.449Z,17.56
2022-10-07T14:00:48.359Z,17.61
2022-10-07T14:02:51.012Z,17.50
2022-10-07T14:05:02.424Z,17.45
2022-10-07T14:07:13.598Z,17.37
2022-10-07T14:09:33.750Z,17.40
2022-10-07T14:11:35.599Z,17.41
2022-10-07T14:13:37.559Z,17.37
2022-10-07T14:15:46.632Z,17.50
2022-10-07T14:17:48.404Z,17.54
2022-10-07T14:19:57.029Z,17.40
2022-10-07T14:22:04.248Z,17.43
2022-10-07T14:24:09.834Z,17.46
2022-10-07T14:26:11.761Z,17.47
2022-10-07T14:28:28.651Z,17.36
2022-10-07T14:30:41.000Z,17.32
2022-10-07T14:32:43.416Z,17.34
2022-10-07T14:34:45.809Z,17.34
2022-10-07T14:37:03.432Z,17.30
2022-10-07T14:39:31.317Z,17.28
2022-10-07T14:41:33.050Z,17.32
2022-10-07T14:43:38.635Z,17.32
2022-10-07T14:45:40.445Z,17.22
2022-10-07T14:47:42.206Z,17.26
2022-10-07T14:49:43.986Z,17.04
2022-10-07T14:51:45.764Z,16.97
2022-10-07T14:53:52.240Z,16.89
2022-10-07T14:55:54.037Z,16.92
2022-10-07T14:57:55.795Z,16.98
2022-10-07T14:59:57.526Z,16.98
2022-10-07T15:01:59.407Z,16.99
2022-10-07T15:04:01.410Z,17.05
2022-10-07T15:06:03.373Z,16.99
2022-10-07T15:08:05.276Z,16.95
2022-10-07T15:10:13.997Z,16.98
2022-10-07T15:12:16.569Z,16.86
2022-10-07T15:14:18.398Z,16.78
2022-10-07T15:16:23.174Z,16.74
2022-10-07T15:18:24.944Z,16.76
2022-10-07T15:20:26.651Z,16.72
2022-10-07T15:22:28.420Z,16.67
2022-10-07T15:24:30.255Z,16.63
2022-10-07T15:26:31.980Z,16.60
2022-10-07T15:28:34.215Z,16.60
2022-10-07T15:30:39.405Z,16.59
2022-10-07T15:32:41.381Z,16.53
2022-10-07T15:34:43.165Z,16.47
2022-10-07T15:36:44.977Z,16.41
2022-10-07T15:38:46.657Z,16.34
2022-10-07T15:40:55.235Z,16.30
2022-10-07T15:42:57.344Z,16.20
2022-10-07T15:44:59.065Z,16.09
2022-10-07T15:47:01.021Z,15.96
2022-10-07T15:49:03.198Z,15.84
2022-10-07T15:51:04.965Z,15.74
2022-10-07T15:53:06.879Z,15.66
2022-10-07T15:55:08.940Z,15.57
2022-10-07T15:57:10.681Z,15.47
2022-10-07T15:59:12.664Z,15.36
2022-10-07T16:01:14.627Z,15.23
2022-10-07T16:03:16.380Z,15.08
2022-10-07T16:05:18.135Z,15.00
2022-10-07T16:07:19.961Z,14.87
2022-10-07T16:09:22.977Z,14.69
2022-10-07T16:11:26.124Z,14.63
2022-10-07T16:13:27.987Z,14.49
2022-10-07T16:15:29.723Z,14.35
2022-10-07T16:17:31.522Z,14.12
2022-10-07T16:19:33.419Z,14.00
2022-10-07T16:21:40.944Z,13.93
2022-10-07T16:23:46.249Z,13.90
2022-10-07T16:25:48.324Z,13.68
2022-10-07T16:27:50.025Z,13.61
2022-10-07T16:29:51.812Z,13.54
2022-10-07T16:31:58.164Z,13.44
2022-10-07T16:34:00.815Z,13.33
2022-10-07T16:36:13.404Z,13.26
2022-10-07T16:38:15.215Z,13.12
2022-10-07T16:40:16.913Z,13.01
2022-10-07T16:42:18.713Z,12.91
2022-10-07T16:44:21.220Z,12.84
2022-10-07T16:46:23.353Z,12.78
2022-10-07T16:48:25.185Z,12.77
2022-10-07T16:50:26.935Z,12.73
2022-10-07T16:52:28.657Z,12.66
2022-10-07T16:54:30.456Z,12.59
2022-10-07T16:56:34.481Z,12.46
2022-10-07T16:58:36.643Z,12.34
2022-10-07T17:00:38.615Z,12.16
2022-10-07T17:02:40.443Z,11.99
2022-10-07T17:04:42.148Z,12.03
2022-10-07T17:06:44.211Z,11.95
2022-10-07T17:08:48.474Z,11.93
2022-10-07T17:10:50.497Z,11.95
2022-10-07T17:12:52.330Z,11.94
2022-10-07T17:14:54.080Z,11.96
2022-10-07T17:16:57.831Z,11.95
2022-10-07T17:18:59.654Z,11.96
2022-10-07T17:21:01.465Z,11.87
2022-10-07T17:23:03.235Z,11.79
2022-10-07T17:25:05.629Z,11.78
2022-10-07T17:27:07.866Z,11.73
2022-10-07T17:29:12.673Z,11.69
2022-10-07T17:31:14.621Z,11.62
2022-10-07T17:33:16.414Z,11.58
2022-10-07T17:35:18.142Z,11.52
2022-10-07T17:37:20.016Z,11.38
2022-10-07T17:39:21.868Z,11.37
2022-10-07T17:41:28.723Z,11.43
2022-10-07T17:43:30.520Z,11.45
2022-10-07T17:45:37.583Z,11.40
2022-10-07T17:47:39.279Z,11.40
2022-10-07T17:49:41.018Z,11.54
2022-10-07T17:51:43.421Z,11.56
2022-10-07T17:53:46.191Z,11.53
2022-10-07T17:55:51.786Z,11.49
2022-10-07T17:57:53.633Z,11.44
2022-10-07T17:59:55.336Z,11.45
2022-10-07T18:01:57.174Z,11.48
2022-10-07T18:04:01.545Z,11.48
2022-10-07T18:06:04.102Z,11.43
2022-10-07T18:08:05.976Z,11.35
2022-10-07T18:10:08.179Z,11.41
2022-10-07T18:12:09.894Z,11.38
2022-10-07T18:14:12.267Z,11.38
2022-10-07T18:16:14.097Z,11.35
2022-10-07T18:18:15.848Z,11.38
2022-10-07T18:20:24.524Z,11.39
2022-10-07T18:22:26.458Z,11.45
2022-10-07T18:24:29.094Z,11.49
2022-10-07T18:26:30.886Z,11.49
2022-10-07T18:28:36.576Z,11.50
2022-10-07T18:30:38.351Z,11.53
2022-10-07T18:32:40.223Z,11.54
2022-10-07T18:34:42.074Z,11.54
2022-10-07T18:36:43.819Z,11.53
2022-10-07T18:38:45.931Z,11.53
2022-10-07T18:40:47.813Z,11.43
2022-10-07T18:42:50.088Z,11.48
2022-10-07T18:44:51.851Z,11.46
2022-10-07T18:46:53.713Z,11.49
2022-10-07T18:48:55.512Z,11.49
2022-10-07T18:50:57.285Z,11.52
2022-10-07T18:52:59.139Z,11.46
2022-10-07T18:55:01.389Z,11.51
2022-10-07T18:57:03.189Z,11.44
2022-10-07T18:59:05.115Z,11.30
2022-10-07T19:01:11.077Z,11.30
2022-10-07T19:03:12.976Z,11.29
2022-10-07T19:05:14.891Z,11.29
2022-10-07T19:07:16.618Z,11.23
2022-10-07T19:09:20.788Z,11.35
2022-10-07T19:11:23.257Z,11.29
2022-10-07T19:13:25.013Z,11.34
2022-10-07T19:15:26.921Z,11.35
2022-10-07T19:17:28.663Z,11.33
2022-10-07T19:19:30.384Z,11.32
2022-10-07T19:21:33.122Z,11.27
2022-10-07T19:23:34.880Z,11.26
2022-10-07T19:25:41.873Z,11.24
2022-10-07T19:27:43.901Z,11.26
2022-10-07T19:29:45.922Z,11.23
2022-10-07T19:31:49.236Z,11.13
2022-10-07T19:33:55.606Z,11.16
2022-10-07T19:35:57.425Z,11.12
2022-10-07T19:37:59.890Z,11.20
2022-10-07T19:40:01.729Z,11.18
2022-10-07T19:42:03.596Z,11.16
2022-10-07T19:44:05.869Z,11.17
2022-10-07T19:46:08.555Z,11.16
2022-10-07T19:48:14.171Z,11.19
2022-10-07T19:50:16.402Z,11.17
2022-10-07T19:52:18.267Z,11.11
2022-10-07T19:54:20.052Z,11.08
2022-10-07T19:56:37.087Z,11.06
2022-10-07T19:58:38.912Z,10.99
2022-10-07T20:00:40.655Z,10.99
2022-10-07T20:02:42.424Z,10.95
2022-10-07T20:04:44.452Z,10.92
2022-10-07T20:06:46.565Z,10.96
2022-10-07T20:08:48.392Z,10.87
2022-10-07T20:10:50.365Z,10.86
2022-10-07T20:12:52.672Z,10.85
2022-10-07T20:14:54.360Z,10.77
2022-10-07T20:16:56.403Z,10.77
2022-10-07T20:19:01.871Z,10.77
2022-10-07T20:21:06.939Z,10.71
2022-10-07T20:23:08.774Z,10.63
2022-10-07T20:25:10.542Z,10.55
2022-10-07T20:27:12.300Z,10.63
2022-10-07T20:29:14.255Z,10.63
2022-10-07T20:31:18.868Z,10.55
2022-10-07T20:33:20.583Z,10.56
2022-10-07T20:35:22.371Z,10.47
2022-10-07T20:37:24.172Z,10.49
2022-10-07T20:39:25.916Z,10.43
2022-10-07T20:41:28.591Z,10.48
2022-10-07T20:43:30.326Z,10.45
2022-10-07T20:45:32.143Z,10.50
2022-10-07T20:47:35.166Z,10.48
2022-10-07T20:49:37.849Z,10.44
2022-10-07T20:51:39.550Z,10.43
2022-10-07T20:53:41.301Z,10.47
2022-10-07T20:55:43.086Z,10.46
2022-10-07T20:57:44.766Z,10.41
2022-10-07T20:59:46.557Z,10.39
2022-10-07T21:01:48.350Z,10.35
2022-10-07T21:03:50.049Z,10.38
2022-10-07T21:05:57.802Z,10.32
2022-10-07T21:07:59.540Z,10.41
2022-10-07T21:10:02.029Z,10.35
2022-10-07T21:12:05.887Z,10.46
2022-10-07T21:14:07.627Z,10.49
2022-10-07T21:16:09.333Z,10.49
2022-10-07T21:18:11.187Z,10.51
2022-10-07T21:20:12.923Z,10.43
2022-10-07T21:22:14.655Z,10.39
2022-10-07T21:24:16.937Z,10.47
2022-10-07T21:26:20.105Z,10.45
2022-10-07T21:28:21.896Z,10.45
2022-10-07T21:30:24.010Z,10.50
2022-10-07T21:32:25.970Z,10.46
2022-10-07T21:34:27.674Z,10.45
2022-10-07T21:36:29.660Z,10.45
2022-10-07T21:38:31.495Z,10.51
2022-10-07T21:40:33.166Z,10.52
2022-10-07T21:42:34.960Z,10.43
2022-10-07T21:44:36.764Z,10.49
2022-10-07T21:46:39.638Z,10.42
2022-10-07T21:48:41.497Z,10.50
2022-10-07T21:50:43.409Z,10.49
2022-10-07T21:52:45.642Z,10.46
2022-10-07T21:54:47.600Z,10.46
2022-10-07T21:56:49.300Z,10.54
2022-10-07T21:58:50.984Z,10.46
2022-10-07T22:00:52.899Z,10.49
2022-10-07T22:02:54.647Z,10.52
2022-10-07T22:04:56.661Z,10.49
2022-10-07T22:06:58.506Z,10.47
2022-10-07T22:09:00.181Z,10.46
2022-10-07T22:11:04.278Z,10.47
2022-10-07T22:13:06.101Z,10.45
2022-10-07T22:15:08.128Z,10.48
2022-10-07T22:17:10.075Z,10.52
2022-10-07T22:19:12.132Z,10.47
2022-10-07T22:21:16.266Z,10.55
2022-10-07T22:23:18.080Z,10.58
2022-10-07T22:25:20.034Z,10.59
2022-10-07T22:27:21.762Z,10.57
2022-10-07T22:29:23.716Z,10.34
2022-10-07T22:31:25.801Z,10.61
2022-10-07T22:33:27.539Z,10.58
2022-10-07T22:35:29.300Z,10.64
2022-10-07T22:37:31.006Z,10.61
2022-10-07T22:39:32.684Z,10.56
2022-10-07T22:41:34.450Z,10.55
2022-10-07T22:43:37.809Z,10.49
2022-10-07T22:45:39.605Z,10.44
2022-10-07T22:47:41.554Z,10.41
2022-10-07T22:49:43.395Z,10.44
2022-10-07T22:51:45.073Z,10.53
2022-10-07T22:53:51.842Z,10.53
2022-10-07T22:55:53.539Z,10.55
2022-10-07T22:57:55.251Z,10.48
2022-10-07T22:59:57.489Z,10.46
2022-10-07T23:01:59.168Z,10.56
2022-10-07T23:04:01.945Z,10.50
2022-10-07T23:06:04.322Z,10.46
2022-10-07T23:08:05.998Z,10.52
2022-10-07T23:10:08.262Z,10.61
2022-10-07T23:12:10.066Z,10.61
2022-10-07T23:14:11.849Z,10.71
2022-10-07T23:16:16.329Z,10.64
2022-10-07T23:18:18.217Z,10.67
2022-10-07T23:20:19.963Z,10.66
2022-10-07T23:22:21.654Z,10.73
2022-10-07T23:24:23.523Z,10.78
2022-10-07T23:26:27.234Z,10.73
2022-10-07T23:28:28.833Z,10.72
2022-10-07T23:30:30.704Z,10.46
2022-10-07T23:32:32.510Z,10.74
2022-10-07T23:34:34.208Z,10.76
2022-10-07T23:36:35.959Z,10.76
2022-10-07T23:38:39.441Z,10.74
2022-10-07T23:40:41.177Z,10.75
2022-10-07T23:42:42.948Z,10.67
2022-10-07T23:44:44.634Z,10.74
2022-10-07T23:46:46.405Z,10.71
2022-10-07T23:48:48.591Z,10.65
2022-10-07T23:50:51.302Z,10.67
2022-10-07T23:52:53.030Z,10.34
2022-10-07T23:54:54.899Z,10.45
2022-10-07T23:56:56.582Z,10.66
2022-10-07T23:58:58.321Z,10.67
